General Aviation Weather

Text Reports

Enter one or more of the following location identifiers separated by a space:

Zip Code, Four-Character ICAO or Three-Character IATA airport codes.

METAR - Aviation Routine Weather Report
KGPM - Grand Prairie, Texas
Updated at 2:15 AM GMT on July 24, 2014 (9:15 PM CDT):
METAR KGPM 240215Z AUTO 09017G25KT 10SM SCT055 29/19 A3007 RMK AO2 T02880190
TAF - Terminal Area Forecast
KGPM - Grand Prairie, Texas
Updated at 2:15 AM GMT on July 24, 2014 (9:15 PM CDT):
No TAF is currently available for this location.
Decoded:
No decoded TAF is available.
PIREP - Pilot Weather Report
KGPM - Grand Prairie, Texas
Updated at 2:15 AM GMT on July 24, 2014 (9:15 PM CDT):
No PIREP is currently available for this location.
AIRMET - Airmens Meteorological Information
KGPM - Grand Prairie, Texas
Updated at 2:15 AM GMT on July 24, 2014 (9:15 PM CDT):
No AIRMET is currently available for this location.
SIGMET - Significant Meteorological Information
KGPM - Grand Prairie, Texas
Updated at 2:15 AM GMT on July 24, 2014 (9:15 PM CDT):
No SIGMET is currently available for this location.
NOTAM - Notice to Airmen
KGPM - Grand Prairie, Texas
Updated at 2:15 AM GMT on July 24, 2014 (9:15 PM CDT):
No NOTAM is currently available for this location.
Forecast Area
KGPM - Grand Prairie, Texas
Updated at 2:15 AM GMT on July 24, 2014 (9:15 PM CDT):
No NOTAM is currently available for this location.
Aviation Weather Maps